Miguel Oliver — ECLX — position and weather

sailwx.info

Track history (hours):
 
Tides and Currents Weather Stations Pressure Air Temp Water Temp Dewpoint Dewpoint Depression Visibility Wind Speed Wind Dir Waves Ship Positions

Oceanographic research ship Miguel Oliver (Spain)

Ship's website: http://www.mapa.es/es/pesca/pags/miguel_web/index.htm

Last reported at 2017-Mar-07 18:33 UTC. Time now 2017-Mar-24 00:14 UTC.
Position N 39°52' W 009°38'.
Warning: this ship's position is 16 days out of date.

Length 70 m; draft 4.8 m.

Type: Other ship. MMSI: 225322000.

Date/timePositionNaut miles runAvg speedWind from/ knotsBaromVisibWave heightAir tempDewpointWater temp
2017-Mar-07 18:33N 39°52' W 009°38'1311.4
2017-Mar-07 17:26N 39°39' W 009°41'1511.1
2017-Mar-07 16:07N 39°25' W 009°45'610.9
2017-Mar-07 15:33N 39°19' W 009°46'1110.7
2017-Mar-07 14:33N 39°08' W 009°48'1110.8
2017-Mar-07 13:33N 38°58' W 009°50'1111.0
2017-Mar-07 12:33N 38°47' W 009°50'1111.1
2017-Mar-07 11:33N 38°36' W 009°48'1111.2
2017-Mar-07 10:33N 38°25' W 009°45'1211.5
2017-Mar-07 09:33N 38°14' W 009°42'1211.6
2017-Mar-07 08:32N 38°02' W 009°38'1111.5
2017-Mar-07 07:33N 37°51' W 009°35'  
Track history (hours):
 
Tides and Currents Weather Stations Pressure Air Temp Water Temp Dewpoint Dewpoint Depression Visibility Wind Speed Wind Dir Waves Ship Positions

Oceanographic research ship Miguel Oliver (Spain)

Ship's website: http://www.mapa.es/es/pesca/pags/miguel_web/index.htm

Last reported at 2017-Mar-07 18:33 UTC. Time now 2017-Mar-24 00:14 UTC.
Position N 39°52' W 009°38'.
Warning: this ship's position is 16 days out of date.

Length 70 m; draft 4.8 m.

Type: Other ship. MMSI: 225322000.

Date/timePositionNaut miles runAvg speedWind from/ knotsBaromVisibWave heightAir tempDewpointWater temp
2017-Mar-07 18:33N 39°52' W 009°38'1311.4
2017-Mar-07 17:26N 39°39' W 009°41'1511.1
2017-Mar-07 16:07N 39°25' W 009°45'610.9
2017-Mar-07 15:33N 39°19' W 009°46'1110.7
2017-Mar-07 14:33N 39°08' W 009°48'1110.8
2017-Mar-07 13:33N 38°58' W 009°50'1111.0
2017-Mar-07 12:33N 38°47' W 009°50'1111.1
2017-Mar-07 11:33N 38°36' W 009°48'1111.2
2017-Mar-07 10:33N 38°25' W 009°45'1211.5
2017-Mar-07 09:33N 38°14' W 009°42'1211.6
2017-Mar-07 08:32N 38°02' W 009°38'1111.5
2017-Mar-07 07:33N 37°51' W 009°35'  

Dump ship's entire track history